sensor_id;sensor_type;location;lat;lon;timestamp;pressure;altitude;pressure_sealevel;temperature;humidity
68380;BME280;57711;53.196;19.638;2023-01-28T00:01:26;101089.89;;;0.84;70.57
68380;BME280;57711;53.196;19.638;2023-01-28T00:03:53;101084.61;;;0.87;70.60
68380;BME280;57711;53.196;19.638;2023-01-28T00:06:20;101082.18;;;0.90;70.56
68380;BME280;57711;53.196;19.638;2023-01-28T00:08:48;101084.64;;;0.92;70.58
68380;BME280;57711;53.196;19.638;2023-01-28T00:11:15;101085.13;;;0.93;70.66
68380;BME280;57711;53.196;19.638;2023-01-28T00:13:42;101085.67;;;0.92;70.56
68380;BME280;57711;53.196;19.638;2023-01-28T00:16:10;101085.66;;;0.93;70.57
68380;BME280;57711;53.196;19.638;2023-01-28T00:18:37;101084.94;;;0.93;70.66
68380;BME280;57711;53.196;19.638;2023-01-28T00:23:35;101087.40;;;0.89;70.54
68380;BME280;57711;53.196;19.638;2023-01-28T00:26:05;101094.17;;;0.84;70.48
68380;BME280;57711;53.196;19.638;2023-01-28T00:28:32;101093.11;;;0.79;70.50
68380;BME280;57711;53.196;19.638;2023-01-28T00:31:07;101098.19;;;0.76;70.69
68380;BME280;57711;53.196;19.638;2023-01-28T00:33:36;101094.19;;;0.78;70.67
68380;BME280;57711;53.196;19.638;2023-01-28T00:36:04;101087.31;;;0.82;70.56
68380;BME280;57711;53.196;19.638;2023-01-28T00:38:32;101086.27;;;0.86;70.58
68380;BME280;57711;53.196;19.638;2023-01-28T00:41:14;101082.61;;;0.88;70.54
68380;BME280;57711;53.196;19.638;2023-01-28T00:43:42;101085.66;;;0.93;70.58
68380;BME280;57711;53.196;19.638;2023-01-28T00:46:11;101087.55;;;0.95;70.54
68380;BME280;57711;53.196;19.638;2023-01-28T00:48:41;101086.77;;;0.97;70.53
68380;BME280;57711;53.196;19.638;2023-01-28T00:51:10;101084.14;;;0.96;70.51
68380;BME280;57711;53.196;19.638;2023-01-28T00:53:38;101088.08;;;0.95;70.59
68380;BME280;57711;53.196;19.638;2023-01-28T00:56:07;101085.98;;;0.94;70.55
68380;BME280;57711;53.196;19.638;2023-01-28T00:58:35;101082.52;;;0.91;70.56
68380;BME280;57711;53.196;19.638;2023-01-28T01:01:10;101083.27;;;0.90;70.48
68380;BME280;57711;53.196;19.638;2023-01-28T01:03:38;101076.30;;;0.86;70.50
68380;BME280;57711;53.196;19.638;2023-01-28T01:06:06;101078.38;;;0.83;70.53
68380;BME280;57711;53.196;19.638;2023-01-28T01:08:35;101079.60;;;0.83;70.46
68380;BME280;57711;53.196;19.638;2023-01-28T01:11:07;101086.16;;;0.84;70.38
68380;BME280;57711;53.196;19.638;2023-01-28T01:13:35;101080.04;;;0.86;70.41
68380;BME280;57711;53.196;19.638;2023-01-28T01:16:10;101080.58;;;0.85;70.37
68380;BME280;57711;53.196;19.638;2023-01-28T01:18:38;101084.46;;;0.86;70.40
68380;BME280;57711;53.196;19.638;2023-01-28T01:21:11;101086.27;;;0.86;70.27
68380;BME280;57711;53.196;19.638;2023-01-28T01:23:39;101085.91;;;0.85;70.42
68380;BME280;57711;53.196;19.638;2023-01-28T01:26:06;101086.61;;;0.86;70.41
68380;BME280;57711;53.196;19.638;2023-01-28T01:28:34;101097.31;;;0.86;70.52
68380;BME280;57711;53.196;19.638;2023-01-28T01:31:06;101094.66;;;0.85;70.47
68380;BME280;57711;53.196;19.638;2023-01-28T01:33:34;101089.52;;;0.84;70.41
68380;BME280;57711;53.196;19.638;2023-01-28T01:36:01;101091.76;;;0.82;70.46
68380;BME280;57711;53.196;19.638;2023-01-28T01:38:28;101092.56;;;0.79;70.40
68380;BME280;57711;53.196;19.638;2023-01-28T01:40:59;101091.43;;;0.76;70.46
68380;BME280;57711;53.196;19.638;2023-01-28T01:43:47;101086.77;;;0.72;70.46
68380;BME280;57711;53.196;19.638;2023-01-28T01:49:13;101092.35;;;0.75;70.47
68380;BME280;57711;53.196;19.638;2023-01-28T01:51:43;101090.95;;;0.80;70.53
68380;BME280;57711;53.196;19.638;2023-01-28T01:54:12;101093.84;;;0.83;70.41
68380;BME280;57711;53.196;19.638;2023-01-28T01:56:42;101084.87;;;0.85;70.56
68380;BME280;57711;53.196;19.638;2023-01-28T01:59:13;101078.55;;;0.87;70.48
68380;BME280;57711;53.196;19.638;2023-01-28T02:01:41;101077.79;;;0.89;70.41
68380;BME280;57711;53.196;19.638;2023-01-28T02:04:25;101078.52;;;0.88;70.61
68380;BME280;57711;53.196;19.638;2023-01-28T02:06:52;101081.04;;;0.88;70.51
68380;BME280;57711;53.196;19.638;2023-01-28T02:09:31;101081.58;;;0.87;70.57
68380;BME280;57711;53.196;19.638;2023-01-28T02:12:03;101077.88;;;0.86;70.62
68380;BME280;57711;53.196;19.638;2023-01-28T02:14:35;101074.73;;;0.85;70.51
68380;BME280;57711;53.196;19.638;2023-01-28T02:17:04;101073.44;;;0.82;70.43
68380;BME280;57711;53.196;19.638;2023-01-28T02:19:38;101072.08;;;0.79;70.46
68380;BME280;57711;53.196;19.638;2023-01-28T02:22:18;101070.48;;;0.79;70.40
68380;BME280;57711;53.196;19.638;2023-01-28T02:32:35;101062.84;;;0.89;70.44
68380;BME280;57711;53.196;19.638;2023-01-28T02:35:09;101057.59;;;0.91;70.30
68380;BME280;57711;53.196;19.638;2023-01-28T02:37:44;101062.77;;;0.91;70.34
68380;BME280;57711;53.196;19.638;2023-01-28T02:40:17;101063.34;;;0.89;70.39
68380;BME280;57711;53.196;19.638;2023-01-28T02:42:46;101062.27;;;0.89;70.48
68380;BME280;57711;53.196;19.638;2023-01-28T02:45:18;101062.27;;;0.90;70.53
68380;BME280;57711;53.196;19.638;2023-01-28T02:47:47;101062.02;;;0.87;70.41
68380;BME280;57711;53.196;19.638;2023-01-28T02:50:41;101062.41;;;0.86;70.50
68380;BME280;57711;53.196;19.638;2023-01-28T02:56:27;101063.71;;;0.84;70.47
68380;BME280;57711;53.196;19.638;2023-01-28T02:59:10;101060.88;;;0.84;70.55
68380;BME280;57711;53.196;19.638;2023-01-28T03:04:37;101058.00;;;0.85;70.33
68380;BME280;57711;53.196;19.638;2023-01-28T03:07:08;101059.92;;;0.86;70.24
68380;BME280;57711;53.196;19.638;2023-01-28T03:09:38;101063.64;;;0.86;70.30
68380;BME280;57711;53.196;19.638;2023-01-28T03:12:12;101070.86;;;0.88;70.40
68380;BME280;57711;53.196;19.638;2023-01-28T03:15:08;101069.20;;;0.90;70.42
68380;BME280;57711;53.196;19.638;2023-01-28T03:18:06;101067.91;;;0.91;70.39
68380;BME280;57711;53.196;19.638;2023-01-28T03:27:01;101067.89;;;0.87;70.28
68380;BME280;57711;53.196;19.638;2023-01-28T03:29:53;101068.19;;;0.84;70.34
68380;BME280;57711;53.196;19.638;2023-01-28T03:32:42;101066.12;;;0.82;70.45
68380;BME280;57711;53.196;19.638;2023-01-28T03:35:32;101064.74;;;0.80;70.44
68380;BME280;57711;53.196;19.638;2023-01-28T03:38:20;101065.45;;;0.81;70.42
68380;BME280;57711;53.196;19.638;2023-01-28T03:40:57;101064.99;;;0.83;70.50
68380;BME280;57711;53.196;19.638;2023-01-28T03:43:27;101066.96;;;0.88;70.38
68380;BME280;57711;53.196;19.638;2023-01-28T03:45:55;101063.65;;;0.91;70.33
68380;BME280;57711;53.196;19.638;2023-01-28T03:48:25;101065.27;;;0.96;70.36
68380;BME280;57711;53.196;19.638;2023-01-28T03:50:54;101062.16;;;0.98;70.36
68380;BME280;57711;53.196;19.638;2023-01-28T03:53:22;101066.76;;;0.99;70.32
68380;BME280;57711;53.196;19.638;2023-01-28T03:55:51;101068.67;;;1.00;70.43
68380;BME280;57711;53.196;19.638;2023-01-28T03:58:19;101075.52;;;1.02;70.43
68380;BME280;57711;53.196;19.638;2023-01-28T04:00:47;101077.31;;;1.02;70.38
68380;BME280;57711;53.196;19.638;2023-01-28T04:03:16;101072.86;;;1.02;70.36
68380;BME280;57711;53.196;19.638;2023-01-28T04:06:00;101077.02;;;1.01;70.34
68380;BME280;57711;53.196;19.638;2023-01-28T04:08:44;101081.61;;;0.97;70.22
68380;BME280;57711;53.196;19.638;2023-01-28T04:11:28;101086.05;;;0.91;70.27
68380;BME280;57711;53.196;19.638;2023-01-28T04:13:57;101084.35;;;0.90;70.31
68380;BME280;57711;53.196;19.638;2023-01-28T04:16:26;101086.28;;;0.90;70.31
68380;BME280;57711;53.196;19.638;2023-01-28T04:18:53;101083.10;;;0.94;70.39
68380;BME280;57711;53.196;19.638;2023-01-28T04:21:21;101083.54;;;0.97;70.31
68380;BME280;57711;53.196;19.638;2023-01-28T04:23:48;101085.36;;;1.01;70.22
68380;BME280;57711;53.196;19.638;2023-01-28T04:26:15;101082.94;;;1.04;70.34
68380;BME280;57711;53.196;19.638;2023-01-28T04:28:42;101087.11;;;1.07;70.33
68380;BME280;57711;53.196;19.638;2023-01-28T04:31:10;101090.77;;;1.09;70.30
68380;BME280;57711;53.196;19.638;2023-01-28T04:33:40;101088.98;;;1.09;70.24
68380;BME280;57711;53.196;19.638;2023-01-28T04:36:29;101080.80;;;1.09;70.28
68380;BME280;57711;53.196;19.638;2023-01-28T04:39:21;101080.61;;;1.09;70.36
68380;BME280;57711;53.196;19.638;2023-01-28T04:42:16;101078.81;;;1.05;70.15
68380;BME280;57711;53.196;19.638;2023-01-28T04:44:54;101076.14;;;1.00;70.22
68380;BME280;57711;53.196;19.638;2023-01-28T04:47:37;101068.95;;;0.97;70.32
68380;BME280;57711;53.196;19.638;2023-01-28T04:50:29;101070.14;;;0.94;70.18
68380;BME280;57711;53.196;19.638;2023-01-28T04:53:17;101071.65;;;0.91;70.27
68380;BME280;57711;53.196;19.638;2023-01-28T04:55:58;101074.08;;;0.93;70.29
68380;BME280;57711;53.196;19.638;2023-01-28T04:58:28;101074.73;;;0.95;70.27
68380;BME280;57711;53.196;19.638;2023-01-28T05:01:00;101074.86;;;0.96;70.05
68380;BME280;57711;53.196;19.638;2023-01-28T05:03:28;101072.67;;;0.98;70.18
68380;BME280;57711;53.196;19.638;2023-01-28T05:05:55;101078.93;;;1.01;70.31
68380;BME280;57711;53.196;19.638;2023-01-28T05:08:52;101088.33;;;1.03;70.31
68380;BME280;57711;53.196;19.638;2023-01-28T05:11:19;101090.35;;;1.01;70.21
68380;BME280;57711;53.196;19.638;2023-01-28T05:13:50;101087.80;;;0.98;70.17
68380;BME280;57711;53.196;19.638;2023-01-28T05:16:18;101083.96;;;0.95;70.13
68380;BME280;57711;53.196;19.638;2023-01-28T05:18:46;101083.11;;;0.94;70.28
68380;BME280;57711;53.196;19.638;2023-01-28T05:21:17;101083.20;;;0.92;70.12
68380;BME280;57711;53.196;19.638;2023-01-28T05:23:47;101077.77;;;0.90;70.28
68380;BME280;57711;53.196;19.638;2023-01-28T05:26:14;101084.21;;;0.88;70.19
68380;BME280;57711;53.196;19.638;2023-01-28T05:28:48;101088.42;;;0.85;70.05
68380;BME280;57711;53.196;19.638;2023-01-28T05:31:15;101092.36;;;0.85;70.17
68380;BME280;57711;53.196;19.638;2023-01-28T05:33:43;101090.86;;;0.87;70.08
68380;BME280;57711;53.196;19.638;2023-01-28T05:36:11;101092.94;;;0.88;70.09
68380;BME280;57711;53.196;19.638;2023-01-28T05:38:39;101093.55;;;0.91;70.15
68380;BME280;57711;53.196;19.638;2023-01-28T05:41:06;101096.02;;;0.92;70.13
68380;BME280;57711;53.196;19.638;2023-01-28T05:43:34;101096.88;;;0.92;70.11
68380;BME280;57711;53.196;19.638;2023-01-28T05:46:17;101100.36;;;0.95;70.09
68380;BME280;57711;53.196;19.638;2023-01-28T05:49:01;101101.52;;;0.97;70.24
68380;BME280;57711;53.196;19.638;2023-01-28T05:51:48;101105.27;;;0.98;70.15
68380;BME280;57711;53.196;19.638;2023-01-28T05:54:18;101104.94;;;0.97;70.12
68380;BME280;57711;53.196;19.638;2023-01-28T05:56:46;101105.82;;;0.97;69.90
68380;BME280;57711;53.196;19.638;2023-01-28T05:59:14;101103.71;;;0.96;70.16
68380;BME280;57711;53.196;19.638;2023-01-28T06:01:42;101102.92;;;0.93;70.13
68380;BME280;57711;53.196;19.638;2023-01-28T06:04:10;101106.23;;;0.90;70.00
68380;BME280;57711;53.196;19.638;2023-01-28T06:06:37;101103.45;;;0.88;70.05
68380;BME280;57711;53.196;19.638;2023-01-28T06:09:05;101106.27;;;0.89;70.03
68380;BME280;57711;53.196;19.638;2023-01-28T06:11:33;101110.52;;;0.90;69.88
68380;BME280;57711;53.196;19.638;2023-01-28T06:14:02;101113.86;;;0.91;70.00
68380;BME280;57711;53.196;19.638;2023-01-28T06:16:41;101118.20;;;0.94;70.06
68380;BME280;57711;53.196;19.638;2023-01-28T06:19:25;101119.20;;;0.96;69.82
68380;BME280;57711;53.196;19.638;2023-01-28T06:21:53;101117.89;;;0.93;69.85
68380;BME280;57711;53.196;19.638;2023-01-28T06:24:20;101118.97;;;0.93;69.99
68380;BME280;57711;53.196;19.638;2023-01-28T06:26:47;101122.70;;;0.93;70.14
68380;BME280;57711;53.196;19.638;2023-01-28T06:29:14;101127.33;;;0.93;70.04
68380;BME280;57711;53.196;19.638;2023-01-28T06:31:42;101127.73;;;0.92;69.97
68380;BME280;57711;53.196;19.638;2023-01-28T06:34:09;101134.56;;;0.89;70.00
68380;BME280;57711;53.196;19.638;2023-01-28T06:36:36;101134.96;;;0.88;70.02
68380;BME280;57711;53.196;19.638;2023-01-28T06:39:06;101141.84;;;0.85;69.89
68380;BME280;57711;53.196;19.638;2023-01-28T06:41:34;101140.50;;;0.83;69.94
68380;BME280;57711;53.196;19.638;2023-01-28T06:44:01;101139.86;;;0.81;69.79
68380;BME280;57711;53.196;19.638;2023-01-28T06:46:28;101145.61;;;0.79;69.89
68380;BME280;57711;53.196;19.638;2023-01-28T06:48:55;101149.31;;;0.80;69.93
68380;BME280;57711;53.196;19.638;2023-01-28T06:51:22;101148.84;;;0.84;69.92
68380;BME280;57711;53.196;19.638;2023-01-28T06:53:49;101149.45;;;0.86;69.94
68380;BME280;57711;53.196;19.638;2023-01-28T06:56:17;101152.41;;;0.88;69.78
68380;BME280;57711;53.196;19.638;2023-01-28T06:58:44;101154.83;;;0.90;69.89
68380;BME280;57711;53.196;19.638;2023-01-28T07:01:11;101153.52;;;0.92;70.02
68380;BME280;57711;53.196;19.638;2023-01-28T07:03:38;101159.42;;;0.92;69.82
68380;BME280;57711;53.196;19.638;2023-01-28T07:06:06;101158.40;;;0.90;69.87
68380;BME280;57711;53.196;19.638;2023-01-28T07:08:33;101154.53;;;0.89;69.96
68380;BME280;57711;53.196;19.638;2023-01-28T07:11:00;101154.55;;;0.88;69.94
68380;BME280;57711;53.196;19.638;2023-01-28T07:13:28;101155.12;;;0.87;69.77
68380;BME280;57711;53.196;19.638;2023-01-28T07:15:55;101156.90;;;0.87;69.89
68380;BME280;57711;53.196;19.638;2023-01-28T07:18:22;101157.11;;;0.86;69.84
68380;BME280;57711;53.196;19.638;2023-01-28T07:20:49;101155.77;;;0.84;69.82
68380;BME280;57711;53.196;19.638;2023-01-28T07:23:16;101154.24;;;0.82;69.92
68380;BME280;57711;53.196;19.638;2023-01-28T07:25:43;101150.86;;;0.82;69.88
68380;BME280;57711;53.196;19.638;2023-01-28T07:28:11;101151.59;;;0.86;69.89
68380;BME280;57711;53.196;19.638;2023-01-28T07:30:38;101153.93;;;0.90;69.78
68380;BME280;57711;53.196;19.638;2023-01-28T07:33:06;101152.23;;;0.93;69.70
68380;BME280;57711;53.196;19.638;2023-01-28T07:35:33;101150.03;;;0.96;69.73
68380;BME280;57711;53.196;19.638;2023-01-28T07:38:01;101152.57;;;0.99;69.79
68380;BME280;57711;53.196;19.638;2023-01-28T07:40:28;101156.75;;;1.02;69.79
68380;BME280;57711;53.196;19.638;2023-01-28T07:42:55;101161.50;;;1.03;69.79
68380;BME280;57711;53.196;19.638;2023-01-28T07:45:24;101160.05;;;1.04;69.92
68380;BME280;57711;53.196;19.638;2023-01-28T07:47:57;101158.97;;;1.04;69.77
68380;BME280;57711;53.196;19.638;2023-01-28T07:50:25;101160.58;;;1.04;69.84
68380;BME280;57711;53.196;19.638;2023-01-28T07:52:55;101161.34;;;1.03;69.97
68380;BME280;57711;53.196;19.638;2023-01-28T07:55:22;101158.04;;;1.00;69.72
68380;BME280;57711;53.196;19.638;2023-01-28T07:57:55;101159.20;;;0.98;69.88
68380;BME280;57711;53.196;19.638;2023-01-28T08:00:23;101163.69;;;0.97;69.76
68380;BME280;57711;53.196;19.638;2023-01-28T08:02:55;101165.69;;;0.96;69.72
68380;BME280;57711;53.196;19.638;2023-01-28T08:05:24;101164.55;;;0.97;69.82
68380;BME280;57711;53.196;19.638;2023-01-28T08:07:53;101163.30;;;0.98;69.60
68380;BME280;57711;53.196;19.638;2023-01-28T08:10:20;101160.42;;;0.99;69.68
68380;BME280;57711;53.196;19.638;2023-01-28T08:12:54;101161.04;;;1.02;69.70
68380;BME280;57711;53.196;19.638;2023-01-28T08:15:22;101161.30;;;1.04;69.65
68380;BME280;57711;53.196;19.638;2023-01-28T08:17:49;101158.59;;;1.05;69.76
68380;BME280;57711;53.196;19.638;2023-01-28T08:20:16;101160.92;;;1.05;69.69
68380;BME280;57711;53.196;19.638;2023-01-28T08:22:44;101161.36;;;1.02;69.48
68380;BME280;57711;53.196;19.638;2023-01-28T08:25:11;101160.84;;;1.02;69.69
68380;BME280;57711;53.196;19.638;2023-01-28T08:27:38;101161.47;;;0.99;69.69
68380;BME280;57711;53.196;19.638;2023-01-28T08:30:06;101158.45;;;0.99;69.82
68380;BME280;57711;53.196;19.638;2023-01-28T08:32:35;101160.03;;;1.00;69.85
68380;BME280;57711;53.196;19.638;2023-01-28T08:35:04;101161.44;;;1.00;69.85
68380;BME280;57711;53.196;19.638;2023-01-28T08:37:31;101164.18;;;0.98;69.89
68380;BME280;57711;53.196;19.638;2023-01-28T08:39:58;101164.05;;;0.97;69.87
68380;BME280;57711;53.196;19.638;2023-01-28T08:42:26;101164.17;;;0.93;69.73
68380;BME280;57711;53.196;19.638;2023-01-28T08:44:53;101165.18;;;0.95;69.76
68380;BME280;57711;53.196;19.638;2023-01-28T08:47:20;101163.81;;;0.98;69.74
68380;BME280;57711;53.196;19.638;2023-01-28T08:49:47;101168.14;;;1.02;69.67
68380;BME280;57711;53.196;19.638;2023-01-28T08:52:14;101165.98;;;1.08;69.73
68380;BME280;57711;53.196;19.638;2023-01-28T08:54:42;101160.84;;;1.12;69.78
68380;BME280;57711;53.196;19.638;2023-01-28T08:57:09;101161.52;;;1.12;69.51
68380;BME280;57711;53.196;19.638;2023-01-28T08:59:36;101166.13;;;1.14;69.63
68380;BME280;57711;53.196;19.638;2023-01-28T09:02:14;101168.25;;;1.14;69.54
68380;BME280;57711;53.196;19.638;2023-01-28T09:04:56;101167.39;;;1.13;69.76
68380;BME280;57711;53.196;19.638;2023-01-28T09:07:24;101165.05;;;1.14;69.79
68380;BME280;57711;53.196;19.638;2023-01-28T09:09:51;101164.32;;;1.15;69.76
68380;BME280;57711;53.196;19.638;2023-01-28T09:12:18;101169.45;;;1.16;69.86
68380;BME280;57711;53.196;19.638;2023-01-28T09:14:45;101163.52;;;1.17;69.91
68380;BME280;57711;53.196;19.638;2023-01-28T09:17:13;101166.17;;;1.18;69.89
68380;BME280;57711;53.196;19.638;2023-01-28T09:19:40;101159.96;;;1.17;69.93
68380;BME280;57711;53.196;19.638;2023-01-28T09:22:07;101154.25;;;1.18;69.81
68380;BME280;57711;53.196;19.638;2023-01-28T09:24:34;101157.10;;;1.17;69.80
68380;BME280;57711;53.196;19.638;2023-01-28T09:27:04;101154.72;;;1.19;69.75
68380;BME280;57711;53.196;19.638;2023-01-28T09:29:35;101151.56;;;1.22;69.72
68380;BME280;57711;53.196;19.638;2023-01-28T09:32:04;101151.23;;;1.27;69.65
68380;BME280;57711;53.196;19.638;2023-01-28T09:34:31;101155.52;;;1.31;69.65
68380;BME280;57711;53.196;19.638;2023-01-28T09:36:59;101154.30;;;1.36;69.58
68380;BME280;57711;53.196;19.638;2023-01-28T09:39:26;101155.31;;;1.37;69.61
68380;BME280;57711;53.196;19.638;2023-01-28T09:42:01;101152.78;;;1.38;69.66
68380;BME280;57711;53.196;19.638;2023-01-28T09:45:10;101153.38;;;1.36;69.49
68380;BME280;57711;53.196;19.638;2023-01-28T09:47:42;101151.54;;;1.33;69.52
68380;BME280;57711;53.196;19.638;2023-01-28T09:50:29;101149.61;;;1.32;69.60
68380;BME280;57711;53.196;19.638;2023-01-28T09:53:12;101144.45;;;1.32;69.72
68380;BME280;57711;53.196;19.638;2023-01-28T09:55:45;101146.05;;;1.32;69.67
68380;BME280;57711;53.196;19.638;2023-01-28T09:58:14;101148.51;;;1.34;69.69
68380;BME280;57711;53.196;19.638;2023-01-28T10:01:14;101149.46;;;1.31;69.59
68380;BME280;57711;53.196;19.638;2023-01-28T10:12:32;101134.34;;;1.35;69.59
68380;BME280;57711;53.196;19.638;2023-01-28T10:17:53;101139.05;;;1.47;69.42
68380;BME280;57711;53.196;19.638;2023-01-28T10:26:38;101139.52;;;1.59;69.74
68380;BME280;57711;53.196;19.638;2023-01-28T10:29:32;101136.27;;;1.60;69.68
68380;BME280;57711;53.196;19.638;2023-01-28T10:32:25;101136.83;;;1.60;69.60
68380;BME280;57711;53.196;19.638;2023-01-28T10:34:56;101144.02;;;1.58;69.59
68380;BME280;57711;53.196;19.638;2023-01-28T10:37:36;101143.50;;;1.57;69.52
68380;BME280;57711;53.196;19.638;2023-01-28T10:40:12;101142.49;;;1.56;69.53
68380;BME280;57711;53.196;19.638;2023-01-28T10:42:41;101140.77;;;1.55;69.47
68380;BME280;57711;53.196;19.638;2023-01-28T10:45:27;101143.08;;;1.55;69.53
68380;BME280;57711;53.196;19.638;2023-01-28T10:48:22;101147.02;;;1.55;69.43
68380;BME280;57711;53.196;19.638;2023-01-28T10:50:57;101147.20;;;1.54;69.61
68380;BME280;57711;53.196;19.638;2023-01-28T10:53:42;101146.73;;;1.53;69.48
68380;BME280;57711;53.196;19.638;2023-01-28T10:56:26;101149.44;;;1.51;69.60
68380;BME280;57711;53.196;19.638;2023-01-28T10:59:04;101147.79;;;1.53;69.43
68380;BME280;57711;53.196;19.638;2023-01-28T11:01:46;101148.77;;;1.55;69.37
68380;BME280;57711;53.196;19.638;2023-01-28T11:04:24;101148.77;;;1.60;69.41
68380;BME280;57711;53.196;19.638;2023-01-28T11:06:57;101142.79;;;1.63;69.37
68380;BME280;57711;53.196;19.638;2023-01-28T11:09:30;101140.95;;;1.64;69.38
68380;BME280;57711;53.196;19.638;2023-01-28T11:11:58;101145.77;;;1.68;69.46
68380;BME280;57711;53.196;19.638;2023-01-28T11:14:36;101141.05;;;1.70;69.42
68380;BME280;57711;53.196;19.638;2023-01-28T11:17:04;101138.48;;;1.72;69.50
68380;BME280;57711;53.196;19.638;2023-01-28T11:19:38;101135.13;;;1.71;69.49
68380;BME280;57711;53.196;19.638;2023-01-28T11:24:53;101132.29;;;1.66;69.30
68380;BME280;57711;53.196;19.638;2023-01-28T11:27:26;101127.30;;;1.66;69.52
68380;BME280;57711;53.196;19.638;2023-01-28T11:29:59;101129.30;;;1.65;69.39
68380;BME280;57711;53.196;19.638;2023-01-28T11:32:30;101124.30;;;1.66;69.52
68380;BME280;57711;53.196;19.638;2023-01-28T11:34:57;101114.89;;;1.65;69.46
68380;BME280;57711;53.196;19.638;2023-01-28T11:37:27;101114.75;;;1.64;69.36
68380;BME280;57711;53.196;19.638;2023-01-28T11:40:21;101118.04;;;1.61;69.33
68380;BME280;57711;53.196;19.638;2023-01-28T11:42:50;101121.16;;;1.59;69.24
68380;BME280;57711;53.196;19.638;2023-01-28T11:45:29;101117.84;;;1.58;69.21
68380;BME280;57711;53.196;19.638;2023-01-28T11:48:13;101120.76;;;1.60;69.21
68380;BME280;57711;53.196;19.638;2023-01-28T11:50:58;101118.45;;;1.65;69.17
68380;BME280;57711;53.196;19.638;2023-01-28T11:53:48;101117.91;;;1.69;69.30
68380;BME280;57711;53.196;19.638;2023-01-28T11:56:33;101116.29;;;1.75;69.25
68380;BME280;57711;53.196;19.638;2023-01-28T11:59:16;101119.42;;;1.77;69.09
68380;BME280;57711;53.196;19.638;2023-01-28T12:07:46;101112.38;;;1.79;69.16
68380;BME280;57711;53.196;19.638;2023-01-28T12:10:54;101110.95;;;1.78;69.30
68380;BME280;57711;53.196;19.638;2023-01-28T12:21:19;101109.88;;;1.74;69.15
68380;BME280;57711;53.196;19.638;2023-01-28T12:37:54;101096.54;;;1.65;69.16
68380;BME280;57711;53.196;19.638;2023-01-28T12:43:15;101099.11;;;1.67;68.98
68380;BME280;57711;53.196;19.638;2023-01-28T12:45:52;101098.83;;;1.69;69.03
68380;BME280;57711;53.196;19.638;2023-01-28T12:48:28;101096.75;;;1.73;68.92
68380;BME280;57711;53.196;19.638;2023-01-28T12:51:01;101100.85;;;1.77;69.00
68380;BME280;57711;53.196;19.638;2023-01-28T12:56:22;101098.02;;;1.81;68.91
68380;BME280;57711;53.196;19.638;2023-01-28T12:58:59;101096.55;;;1.82;68.94
68380;BME280;57711;53.196;19.638;2023-01-28T13:01:45;101094.62;;;1.81;68.92
68380;BME280;57711;53.196;19.638;2023-01-28T13:04:28;101093.63;;;1.80;68.81
68380;BME280;57711;53.196;19.638;2023-01-28T13:07:12;101094.13;;;1.76;68.66
68380;BME280;57711;53.196;19.638;2023-01-28T13:09:47;101098.23;;;1.76;68.89
68380;BME280;57711;53.196;19.638;2023-01-28T13:12:16;101091.46;;;1.76;68.85
68380;BME280;57711;53.196;19.638;2023-01-28T13:14:44;101094.92;;;1.74;68.88
68380;BME280;57711;53.196;19.638;2023-01-28T13:17:27;101090.48;;;1.73;68.91
68380;BME280;57711;53.196;19.638;2023-01-28T13:19:56;101090.73;;;1.72;68.83
68380;BME280;57711;53.196;19.638;2023-01-28T13:22:29;101091.85;;;1.70;68.86
68380;BME280;57711;53.196;19.638;2023-01-28T13:25:24;101086.94;;;1.68;68.76
68380;BME280;57711;53.196;19.638;2023-01-28T13:28:02;101091.29;;;1.67;68.69
68380;BME280;57711;53.196;19.638;2023-01-28T13:30:32;101092.08;;;1.64;68.76
68380;BME280;57711;53.196;19.638;2023-01-28T13:33:03;101091.39;;;1.64;68.71
68380;BME280;57711;53.196;19.638;2023-01-28T13:35:35;101089.82;;;1.63;68.72
68380;BME280;57711;53.196;19.638;2023-01-28T13:38:08;101089.55;;;1.61;68.69
68380;BME280;57711;53.196;19.638;2023-01-28T13:40:37;101089.16;;;1.62;68.66
68380;BME280;57711;53.196;19.638;2023-01-28T13:43:34;101085.48;;;1.65;68.62
68380;BME280;57711;53.196;19.638;2023-01-28T13:46:08;101084.61;;;1.68;68.58
68380;BME280;57711;53.196;19.638;2023-01-28T13:48:47;101087.65;;;1.73;68.68
68380;BME280;57711;53.196;19.638;2023-01-28T13:51:26;101086.95;;;1.77;68.69
68380;BME280;57711;53.196;19.638;2023-01-28T13:54:21;101087.92;;;1.80;68.67
68380;BME280;57711;53.196;19.638;2023-01-28T14:18:25;101104.00;;;1.56;68.46
68380;BME280;57711;53.196;19.638;2023-01-28T14:20:54;101105.52;;;1.53;68.53
68380;BME280;57711;53.196;19.638;2023-01-28T14:23:22;101097.92;;;1.51;68.42
68380;BME280;57711;53.196;19.638;2023-01-28T14:31:41;101103.59;;;1.47;68.43
68380;BME280;57711;53.196;19.638;2023-01-28T14:36:43;101103.05;;;1.43;68.30
68380;BME280;57711;53.196;19.638;2023-01-28T14:39:16;101104.58;;;1.41;68.35
68380;BME280;57711;53.196;19.638;2023-01-28T14:41:46;101103.08;;;1.38;68.25
68380;BME280;57711;53.196;19.638;2023-01-28T14:44:37;101106.06;;;1.34;68.32
68380;BME280;57711;53.196;19.638;2023-01-28T14:47:38;101107.68;;;1.34;68.19
68380;BME280;57711;53.196;19.638;2023-01-28T14:55:48;101101.77;;;1.44;68.15
68380;BME280;57711;53.196;19.638;2023-01-28T14:58:22;101100.42;;;1.46;68.17
68380;BME280;57711;53.196;19.638;2023-01-28T15:00:55;101096.67;;;1.47;68.12
68380;BME280;57711;53.196;19.638;2023-01-28T15:03:25;101087.42;;;1.46;68.09
68380;BME280;57711;53.196;19.638;2023-01-28T15:06:12;101088.92;;;1.44;68.22
68380;BME280;57711;53.196;19.638;2023-01-28T15:08:40;101100.02;;;1.43;68.12
68380;BME280;57711;53.196;19.638;2023-01-28T15:11:10;101095.33;;;1.40;68.07
68380;BME280;57711;53.196;19.638;2023-01-28T15:13:52;101085.48;;;1.36;68.11
68380;BME280;57711;53.196;19.638;2023-01-28T15:16:23;101084.92;;;1.33;68.05